sensor_id;sensor_type;location;lat;lon;timestamp;P1;durP1;ratioP1;P2;durP2;ratioP2
46363;SDS011;32071;49.036;9.344;2022-08-14T00:00:42;6.40;;;5.80;;
46363;SDS011;32071;49.036;9.344;2022-08-14T00:03:16;10.80;;;6.07;;
46363;SDS011;32071;49.036;9.344;2022-08-14T00:05:53;6.10;;;5.50;;
46363;SDS011;32071;49.036;9.344;2022-08-14T00:08:20;6.50;;;5.90;;
46363;SDS011;32071;49.036;9.344;2022-08-14T00:10:46;5.50;;;5.10;;
46363;SDS011;32071;49.036;9.344;2022-08-14T00:13:13;6.10;;;5.60;;
46363;SDS011;32071;49.036;9.344;2022-08-14T00:15:42;5.90;;;5.47;;
46363;SDS011;32071;49.036;9.344;2022-08-14T00:18:11;9.40;;;5.93;;
46363;SDS011;32071;49.036;9.344;2022-08-14T00:20:39;8.23;;;6.17;;
46363;SDS011;32071;49.036;9.344;2022-08-14T00:23:07;6.77;;;5.40;;
46363;SDS011;32071;49.036;9.344;2022-08-14T00:25:33;6.40;;;5.87;;
46363;SDS011;32071;49.036;9.344;2022-08-14T00:27:59;5.77;;;5.27;;
46363;SDS011;32071;49.036;9.344;2022-08-14T00:30:25;6.30;;;5.80;;
46363;SDS011;32071;49.036;9.344;2022-08-14T00:32:51;6.23;;;5.73;;
46363;SDS011;32071;49.036;9.344;2022-08-14T00:35:17;6.63;;;6.03;;
46363;SDS011;32071;49.036;9.344;2022-08-14T00:37:43;8.20;;;5.97;;
46363;SDS011;32071;49.036;9.344;2022-08-14T00:40:10;6.40;;;5.80;;
46363;SDS011;32071;49.036;9.344;2022-08-14T00:42:39;7.43;;;5.10;;
46363;SDS011;32071;49.036;9.344;2022-08-14T00:45:07;6.03;;;5.43;;
46363;SDS011;32071;49.036;9.344;2022-08-14T00:47:38;6.83;;;5.70;;
46363;SDS011;32071;49.036;9.344;2022-08-14T00:50:06;6.30;;;5.70;;
46363;SDS011;32071;49.036;9.344;2022-08-14T00:52:34;6.10;;;5.60;;
46363;SDS011;32071;49.036;9.344;2022-08-14T00:55:00;5.73;;;5.30;;
46363;SDS011;32071;49.036;9.344;2022-08-14T00:57:29;6.30;;;5.70;;
46363;SDS011;32071;49.036;9.344;2022-08-14T00:59:57;6.07;;;5.47;;
46363;SDS011;32071;49.036;9.344;2022-08-14T01:02:24;6.13;;;5.40;;
46363;SDS011;32071;49.036;9.344;2022-08-14T01:04:52;5.93;;;5.43;;
46363;SDS011;32071;49.036;9.344;2022-08-14T01:07:21;7.03;;;5.67;;
46363;SDS011;32071;49.036;9.344;2022-08-14T01:09:48;5.60;;;5.20;;
46363;SDS011;32071;49.036;9.344;2022-08-14T01:12:16;5.90;;;5.40;;
46363;SDS011;32071;49.036;9.344;2022-08-14T01:14:42;6.30;;;5.80;;
46363;SDS011;32071;49.036;9.344;2022-08-14T01:17:08;6.70;;;6.10;;
46363;SDS011;32071;49.036;9.344;2022-08-14T01:19:34;6.00;;;5.50;;
46363;SDS011;32071;49.036;9.344;2022-08-14T01:22:18;7.37;;;6.57;;
46363;SDS011;32071;49.036;9.344;2022-08-14T01:24:44;6.90;;;6.30;;
46363;SDS011;32071;49.036;9.344;2022-08-14T01:27:15;6.30;;;5.80;;
46363;SDS011;32071;49.036;9.344;2022-08-14T01:29:45;7.10;;;6.40;;
46363;SDS011;32071;49.036;9.344;2022-08-14T01:32:11;6.87;;;6.17;;
46363;SDS011;32071;49.036;9.344;2022-08-14T01:34:37;7.10;;;6.47;;
46363;SDS011;32071;49.036;9.344;2022-08-14T01:37:03;5.90;;;5.40;;
46363;SDS011;32071;49.036;9.344;2022-08-14T01:39:29;6.43;;;5.80;;
46363;SDS011;32071;49.036;9.344;2022-08-14T01:41:55;6.20;;;5.70;;
46363;SDS011;32071;49.036;9.344;2022-08-14T01:44:24;6.47;;;5.87;;
46363;SDS011;32071;49.036;9.344;2022-08-14T01:46:55;6.67;;;6.07;;
46363;SDS011;32071;49.036;9.344;2022-08-14T01:49:22;7.10;;;6.40;;
46363;SDS011;32071;49.036;9.344;2022-08-14T01:51:49;6.47;;;5.87;;
46363;SDS011;32071;49.036;9.344;2022-08-14T01:54:20;7.77;;;7.07;;
46363;SDS011;32071;49.036;9.344;2022-08-14T01:56:54;7.03;;;6.37;;
46363;SDS011;32071;49.036;9.344;2022-08-14T01:59:23;7.50;;;6.83;;
46363;SDS011;32071;49.036;9.344;2022-08-14T02:01:57;7.20;;;6.50;;
46363;SDS011;32071;49.036;9.344;2022-08-14T02:04:34;7.17;;;6.47;;
46363;SDS011;32071;49.036;9.344;2022-08-14T02:07:00;7.07;;;6.37;;
46363;SDS011;32071;49.036;9.344;2022-08-14T02:09:28;9.83;;;6.20;;
46363;SDS011;32071;49.036;9.344;2022-08-14T02:12:02;6.90;;;6.30;;
46363;SDS011;32071;49.036;9.344;2022-08-14T02:14:28;6.90;;;6.30;;
46363;SDS011;32071;49.036;9.344;2022-08-14T02:16:55;6.93;;;6.23;;
46363;SDS011;32071;49.036;9.344;2022-08-14T02:19:25;6.30;;;5.80;;
46363;SDS011;32071;49.036;9.344;2022-08-14T02:21:55;7.70;;;6.80;;
46363;SDS011;32071;49.036;9.344;2022-08-14T02:24:23;8.10;;;7.30;;
46363;SDS011;32071;49.036;9.344;2022-08-14T02:26:53;8.00;;;7.30;;
46363;SDS011;32071;49.036;9.344;2022-08-14T02:29:21;9.00;;;7.53;;
46363;SDS011;32071;49.036;9.344;2022-08-14T02:31:50;8.80;;;8.00;;
46363;SDS011;32071;49.036;9.344;2022-08-14T02:34:37;7.43;;;6.73;;
46363;SDS011;32071;49.036;9.344;2022-08-14T02:37:07;8.10;;;7.40;;
46363;SDS011;32071;49.036;9.344;2022-08-14T02:39:39;8.67;;;7.80;;
46363;SDS011;32071;49.036;9.344;2022-08-14T02:42:07;8.50;;;7.70;;
46363;SDS011;32071;49.036;9.344;2022-08-14T02:44:36;8.10;;;7.40;;
46363;SDS011;32071;49.036;9.344;2022-08-14T02:47:03;8.93;;;7.60;;
46363;SDS011;32071;49.036;9.344;2022-08-14T02:49:29;7.77;;;7.07;;
46363;SDS011;32071;49.036;9.344;2022-08-14T02:51:55;8.20;;;7.40;;
46363;SDS011;32071;49.036;9.344;2022-08-14T02:54:22;8.53;;;7.50;;
46363;SDS011;32071;49.036;9.344;2022-08-14T02:56:50;8.50;;;7.70;;
46363;SDS011;32071;49.036;9.344;2022-08-14T02:59:18;7.67;;;7.00;;
46363;SDS011;32071;49.036;9.344;2022-08-14T03:01:44;8.13;;;7.40;;
46363;SDS011;32071;49.036;9.344;2022-08-14T03:04:11;7.67;;;6.90;;
46363;SDS011;32071;49.036;9.344;2022-08-14T03:06:39;7.53;;;6.80;;
46363;SDS011;32071;49.036;9.344;2022-08-14T03:09:07;10.47;;;8.00;;
46363;SDS011;32071;49.036;9.344;2022-08-14T03:11:35;10.60;;;8.90;;
46363;SDS011;32071;49.036;9.344;2022-08-14T03:14:01;8.47;;;7.67;;
46363;SDS011;32071;49.036;9.344;2022-08-14T03:16:29;7.67;;;6.87;;
46363;SDS011;32071;49.036;9.344;2022-08-14T03:18:59;9.13;;;8.23;;
46363;SDS011;32071;49.036;9.344;2022-08-14T03:21:27;8.57;;;7.77;;
46363;SDS011;32071;49.036;9.344;2022-08-14T03:23:55;8.50;;;7.80;;
46363;SDS011;32071;49.036;9.344;2022-08-14T03:26:40;8.70;;;7.90;;
46363;SDS011;32071;49.036;9.344;2022-08-14T03:29:08;9.27;;;8.27;;
46363;SDS011;32071;49.036;9.344;2022-08-14T03:31:36;9.47;;;8.30;;
46363;SDS011;32071;49.036;9.344;2022-08-14T03:34:04;10.33;;;9.00;;
46363;SDS011;32071;49.036;9.344;2022-08-14T03:36:36;9.97;;;9.00;;
46363;SDS011;32071;49.036;9.344;2022-08-14T03:39:08;10.20;;;9.20;;
46363;SDS011;32071;49.036;9.344;2022-08-14T03:41:34;8.70;;;7.90;;
46363;SDS011;32071;49.036;9.344;2022-08-14T03:44:01;9.33;;;8.43;;
46363;SDS011;32071;49.036;9.344;2022-08-14T03:46:30;8.30;;;7.50;;
46363;SDS011;32071;49.036;9.344;2022-08-14T03:48:58;9.33;;;8.43;;
46363;SDS011;32071;49.036;9.344;2022-08-14T03:51:26;9.07;;;8.27;;
46363;SDS011;32071;49.036;9.344;2022-08-14T03:53:53;9.30;;;8.40;;
46363;SDS011;32071;49.036;9.344;2022-08-14T03:56:21;9.00;;;8.07;;
46363;SDS011;32071;49.036;9.344;2022-08-14T03:58:48;9.23;;;8.43;;
46363;SDS011;32071;49.036;9.344;2022-08-14T04:01:16;9.27;;;7.83;;
46363;SDS011;32071;49.036;9.344;2022-08-14T04:03:44;9.90;;;8.97;;
46363;SDS011;32071;49.036;9.344;2022-08-14T04:06:11;9.13;;;8.33;;
46363;SDS011;32071;49.036;9.344;2022-08-14T04:08:38;9.30;;;8.40;;
46363;SDS011;32071;49.036;9.344;2022-08-14T04:11:04;11.77;;;8.37;;
46363;SDS011;32071;49.036;9.344;2022-08-14T04:13:32;9.70;;;8.70;;
46363;SDS011;32071;49.036;9.344;2022-08-14T04:16:03;10.20;;;8.67;;
46363;SDS011;32071;49.036;9.344;2022-08-14T04:18:31;9.53;;;8.53;;
46363;SDS011;32071;49.036;9.344;2022-08-14T04:20:57;9.40;;;8.37;;
46363;SDS011;32071;49.036;9.344;2022-08-14T04:23:24;9.50;;;8.60;;
46363;SDS011;32071;49.036;9.344;2022-08-14T04:25:50;9.83;;;8.50;;
46363;SDS011;32071;49.036;9.344;2022-08-14T04:28:19;10.20;;;9.20;;
46363;SDS011;32071;49.036;9.344;2022-08-14T04:30:45;8.90;;;8.00;;
46363;SDS011;32071;49.036;9.344;2022-08-14T04:33:11;9.20;;;8.30;;
46363;SDS011;32071;49.036;9.344;2022-08-14T04:35:38;10.47;;;8.70;;
46363;SDS011;32071;49.036;9.344;2022-08-14T04:38:07;8.77;;;7.97;;
46363;SDS011;32071;49.036;9.344;2022-08-14T04:40:52;9.27;;;8.37;;
46363;SDS011;32071;49.036;9.344;2022-08-14T04:43:37;9.00;;;8.10;;
46363;SDS011;32071;49.036;9.344;2022-08-14T04:46:12;8.60;;;7.80;;
46363;SDS011;32071;49.036;9.344;2022-08-14T04:48:39;9.40;;;8.50;;
46363;SDS011;32071;49.036;9.344;2022-08-14T04:51:06;11.37;;;8.80;;
46363;SDS011;32071;49.036;9.344;2022-08-14T04:53:34;10.10;;;8.90;;
46363;SDS011;32071;49.036;9.344;2022-08-14T04:56:04;9.93;;;8.80;;
46363;SDS011;32071;49.036;9.344;2022-08-14T04:58:31;8.77;;;7.97;;
46363;SDS011;32071;49.036;9.344;2022-08-14T05:00:58;9.83;;;8.73;;
46363;SDS011;32071;49.036;9.344;2022-08-14T05:03:28;9.33;;;8.43;;
46363;SDS011;32071;49.036;9.344;2022-08-14T05:05:56;8.90;;;8.10;;
46363;SDS011;32071;49.036;9.344;2022-08-14T05:08:23;9.77;;;8.87;;
46363;SDS011;32071;49.036;9.344;2022-08-14T05:10:50;9.90;;;8.90;;
46363;SDS011;32071;49.036;9.344;2022-08-14T05:13:21;9.43;;;8.53;;
46363;SDS011;32071;49.036;9.344;2022-08-14T05:15:47;9.73;;;8.40;;
46363;SDS011;32071;49.036;9.344;2022-08-14T05:18:15;9.00;;;8.20;;
46363;SDS011;32071;49.036;9.344;2022-08-14T05:20:53;10.10;;;9.17;;
46363;SDS011;32071;49.036;9.344;2022-08-14T05:23:21;8.70;;;7.90;;
46363;SDS011;32071;49.036;9.344;2022-08-14T05:25:49;15.27;;;7.73;;
46363;SDS011;32071;49.036;9.344;2022-08-14T05:28:21;9.00;;;8.20;;
46363;SDS011;32071;49.036;9.344;2022-08-14T05:30:51;9.17;;;8.17;;
46363;SDS011;32071;49.036;9.344;2022-08-14T05:33:19;8.87;;;8.07;;
46363;SDS011;32071;49.036;9.344;2022-08-14T05:35:48;9.43;;;8.20;;
46363;SDS011;32071;49.036;9.344;2022-08-14T05:38:16;10.60;;;9.60;;
46363;SDS011;32071;49.036;9.344;2022-08-14T05:40:45;9.80;;;8.90;;
46363;SDS011;32071;49.036;9.344;2022-08-14T05:43:11;10.20;;;9.00;;
46363;SDS011;32071;49.036;9.344;2022-08-14T05:45:38;10.13;;;9.20;;
46363;SDS011;32071;49.036;9.344;2022-08-14T05:48:04;11.03;;;9.30;;
46363;SDS011;32071;49.036;9.344;2022-08-14T05:50:31;9.40;;;8.50;;
46363;SDS011;32071;49.036;9.344;2022-08-14T05:52:58;10.63;;;9.53;;
46363;SDS011;32071;49.036;9.344;2022-08-14T05:55:23;9.50;;;8.50;;
46363;SDS011;32071;49.036;9.344;2022-08-14T05:57:50;10.53;;;9.13;;
46363;SDS011;32071;49.036;9.344;2022-08-14T06:00:18;10.83;;;8.33;;
46363;SDS011;32071;49.036;9.344;2022-08-14T06:02:45;9.30;;;8.40;;
46363;SDS011;32071;49.036;9.344;2022-08-14T06:05:11;9.60;;;8.60;;
46363;SDS011;32071;49.036;9.344;2022-08-14T06:07:37;9.60;;;8.70;;
46363;SDS011;32071;49.036;9.344;2022-08-14T06:10:04;9.13;;;8.33;;
46363;SDS011;32071;49.036;9.344;2022-08-14T06:12:30;9.63;;;8.70;;
46363;SDS011;32071;49.036;9.344;2022-08-14T06:14:56;10.67;;;8.70;;
46363;SDS011;32071;49.036;9.344;2022-08-14T06:17:22;9.73;;;8.77;;
46363;SDS011;32071;49.036;9.344;2022-08-14T06:19:47;8.70;;;7.90;;
46363;SDS011;32071;49.036;9.344;2022-08-14T06:22:13;11.80;;;8.23;;
46363;SDS011;32071;49.036;9.344;2022-08-14T06:24:38;9.60;;;8.70;;
46363;SDS011;32071;49.036;9.344;2022-08-14T06:27:04;9.70;;;8.40;;
46363;SDS011;32071;49.036;9.344;2022-08-14T06:29:30;8.80;;;7.90;;
46363;SDS011;32071;49.036;9.344;2022-08-14T06:31:56;9.00;;;8.20;;
46363;SDS011;32071;49.036;9.344;2022-08-14T06:34:22;8.77;;;7.97;;
46363;SDS011;32071;49.036;9.344;2022-08-14T06:36:48;8.87;;;7.97;;
46363;SDS011;32071;49.036;9.344;2022-08-14T06:39:13;9.70;;;8.70;;
46363;SDS011;32071;49.036;9.344;2022-08-14T06:41:39;9.73;;;8.83;;
46363;SDS011;32071;49.036;9.344;2022-08-14T06:44:06;8.73;;;7.53;;
46363;SDS011;32071;49.036;9.344;2022-08-14T06:46:34;8.20;;;7.50;;
46363;SDS011;32071;49.036;9.344;2022-08-14T06:49:00;9.07;;;8.27;;
46363;SDS011;32071;49.036;9.344;2022-08-14T06:51:26;8.93;;;7.80;;
46363;SDS011;32071;49.036;9.344;2022-08-14T06:53:52;9.30;;;8.50;;
46363;SDS011;32071;49.036;9.344;2022-08-14T06:56:18;9.30;;;8.50;;
46363;SDS011;32071;49.036;9.344;2022-08-14T06:58:43;14.03;;;8.53;;
46363;SDS011;32071;49.036;9.344;2022-08-14T07:01:09;8.37;;;7.50;;
46363;SDS011;32071;49.036;9.344;2022-08-14T07:03:54;8.53;;;7.83;;
46363;SDS011;32071;49.036;9.344;2022-08-14T07:06:39;9.20;;;8.30;;
46363;SDS011;32071;49.036;9.344;2022-08-14T07:09:05;9.10;;;8.30;;
46363;SDS011;32071;49.036;9.344;2022-08-14T07:11:30;8.93;;;8.13;;
46363;SDS011;32071;49.036;9.344;2022-08-14T07:13:56;10.80;;;8.80;;
46363;SDS011;32071;49.036;9.344;2022-08-14T07:16:22;8.80;;;8.10;;
46363;SDS011;32071;49.036;9.344;2022-08-14T07:18:48;9.03;;;8.23;;
46363;SDS011;32071;49.036;9.344;2022-08-14T07:21:13;9.03;;;8.20;;
46363;SDS011;32071;49.036;9.344;2022-08-14T07:23:40;9.27;;;8.33;;
46363;SDS011;32071;49.036;9.344;2022-08-14T07:26:05;10.13;;;9.10;;
46363;SDS011;32071;49.036;9.344;2022-08-14T07:28:35;9.40;;;8.50;;
46363;SDS011;32071;49.036;9.344;2022-08-14T07:31:03;9.73;;;8.93;;
46363;SDS011;32071;49.036;9.344;2022-08-14T07:33:37;9.50;;;8.60;;
46363;SDS011;32071;49.036;9.344;2022-08-14T07:36:10;9.23;;;7.80;;
46363;SDS011;32071;49.036;9.344;2022-08-14T07:38:36;9.73;;;8.83;;
46363;SDS011;32071;49.036;9.344;2022-08-14T07:41:06;8.77;;;7.73;;
46363;SDS011;32071;49.036;9.344;2022-08-14T07:43:33;9.40;;;7.67;;
46363;SDS011;32071;49.036;9.344;2022-08-14T07:45:59;9.03;;;8.23;;
46363;SDS011;32071;49.036;9.344;2022-08-14T07:48:25;8.53;;;7.83;;
46363;SDS011;32071;49.036;9.344;2022-08-14T07:50:51;9.23;;;8.50;;
46363;SDS011;32071;49.036;9.344;2022-08-14T07:53:18;8.33;;;7.63;;
46363;SDS011;32071;49.036;9.344;2022-08-14T07:55:45;9.00;;;8.20;;
46363;SDS011;32071;49.036;9.344;2022-08-14T07:58:11;8.80;;;8.10;;
46363;SDS011;32071;49.036;9.344;2022-08-14T08:00:38;8.50;;;7.60;;
46363;SDS011;32071;49.036;9.344;2022-08-14T08:03:06;10.30;;;8.53;;
46363;SDS011;32071;49.036;9.344;2022-08-14T08:05:38;8.80;;;8.00;;
46363;SDS011;32071;49.036;9.344;2022-08-14T08:08:05;11.70;;;7.80;;
46363;SDS011;32071;49.036;9.344;2022-08-14T08:10:32;8.53;;;7.83;;
46363;SDS011;32071;49.036;9.344;2022-08-14T08:15:54;9.13;;;7.77;;
46363;SDS011;32071;49.036;9.344;2022-08-14T08:18:22;8.80;;;8.00;;
46363;SDS011;32071;49.036;9.344;2022-08-14T08:20:50;11.73;;;7.80;;
46363;SDS011;32071;49.036;9.344;2022-08-14T08:23:19;9.00;;;7.90;;
46363;SDS011;32071;49.036;9.344;2022-08-14T08:25:47;8.07;;;7.30;;
46363;SDS011;32071;49.036;9.344;2022-08-14T08:28:15;8.77;;;7.97;;
46363;SDS011;32071;49.036;9.344;2022-08-14T08:30:46;8.57;;;7.77;;
46363;SDS011;32071;49.036;9.344;2022-08-14T08:33:13;8.67;;;7.97;;
46363;SDS011;32071;49.036;9.344;2022-08-14T08:35:42;8.57;;;7.80;;
46363;SDS011;32071;49.036;9.344;2022-08-14T08:38:09;8.40;;;7.70;;
46363;SDS011;32071;49.036;9.344;2022-08-14T08:40:38;8.60;;;7.90;;
46363;SDS011;32071;49.036;9.344;2022-08-14T08:43:29;7.60;;;6.97;;
46363;SDS011;32071;49.036;9.344;2022-08-14T08:45:57;7.93;;;7.33;;
46363;SDS011;32071;49.036;9.344;2022-08-14T08:48:44;7.40;;;6.70;;
46363;SDS011;32071;49.036;9.344;2022-08-14T08:51:28;7.17;;;6.57;;
46363;SDS011;32071;49.036;9.344;2022-08-14T08:53:59;7.77;;;7.17;;
46363;SDS011;32071;49.036;9.344;2022-08-14T09:01:50;7.57;;;6.87;;
46363;SDS011;32071;49.036;9.344;2022-08-14T09:04:21;6.53;;;6.10;;
46363;SDS011;32071;49.036;9.344;2022-08-14T09:06:47;7.33;;;6.73;;
46363;SDS011;32071;49.036;9.344;2022-08-14T09:09:21;7.80;;;7.10;;
46363;SDS011;32071;49.036;9.344;2022-08-14T09:11:47;7.47;;;6.67;;
46363;SDS011;32071;49.036;9.344;2022-08-14T09:14:13;7.10;;;6.50;;
46363;SDS011;32071;49.036;9.344;2022-08-14T09:16:39;6.70;;;6.07;;
46363;SDS011;32071;49.036;9.344;2022-08-14T09:19:06;7.80;;;7.10;;
46363;SDS011;32071;49.036;9.344;2022-08-14T09:21:33;7.43;;;6.83;;
46363;SDS011;32071;49.036;9.344;2022-08-14T09:24:02;7.27;;;6.63;;
46363;SDS011;32071;49.036;9.344;2022-08-14T09:26:29;7.30;;;6.70;;
46363;SDS011;32071;49.036;9.344;2022-08-14T09:28:55;7.27;;;6.70;;
46363;SDS011;32071;49.036;9.344;2022-08-14T09:31:20;7.97;;;7.27;;
46363;SDS011;32071;49.036;9.344;2022-08-14T09:36:47;6.90;;;6.40;;
46363;SDS011;32071;49.036;9.344;2022-08-14T09:42:43;7.33;;;6.73;;
46363;SDS011;32071;49.036;9.344;2022-08-14T09:45:41;7.97;;;7.27;;
46363;SDS011;32071;49.036;9.344;2022-08-14T09:48:12;6.63;;;6.13;;
46363;SDS011;32071;49.036;9.344;2022-08-14T09:50:44;6.70;;;6.10;;
46363;SDS011;32071;49.036;9.344;2022-08-14T09:53:11;6.80;;;6.30;;
46363;SDS011;32071;49.036;9.344;2022-08-14T09:55:41;6.60;;;6.00;;
46363;SDS011;32071;49.036;9.344;2022-08-14T09:58:11;6.97;;;6.37;;
46363;SDS011;32071;49.036;9.344;2022-08-14T10:03:10;6.63;;;6.03;;
46363;SDS011;32071;49.036;9.344;2022-08-14T10:05:36;6.93;;;6.43;;
46363;SDS011;32071;49.036;9.344;2022-08-14T10:08:03;7.03;;;6.43;;
46363;SDS011;32071;49.036;9.344;2022-08-14T10:10:36;6.50;;;5.90;;
46363;SDS011;32071;49.036;9.344;2022-08-14T10:13:04;6.87;;;6.17;;
46363;SDS011;32071;49.036;9.344;2022-08-14T10:15:31;7.43;;;6.73;;
46363;SDS011;32071;49.036;9.344;2022-08-14T10:20:34;6.67;;;6.17;;
46363;SDS011;32071;49.036;9.344;2022-08-14T10:23:19;6.40;;;5.90;;
46363;SDS011;32071;49.036;9.344;2022-08-14T10:25:47;7.53;;;6.83;;
46363;SDS011;32071;49.036;9.344;2022-08-14T10:28:20;9.47;;;7.57;;
46363;SDS011;32071;49.036;9.344;2022-08-14T10:30:47;7.67;;;6.87;;
46363;SDS011;32071;49.036;9.344;2022-08-14T10:33:27;7.77;;;7.17;;
46363;SDS011;32071;49.036;9.344;2022-08-14T10:35:55;7.67;;;6.87;;
46363;SDS011;32071;49.036;9.344;2022-08-14T10:38:25;7.20;;;6.60;;
46363;SDS011;32071;49.036;9.344;2022-08-14T10:40:56;7.93;;;7.23;;
46363;SDS011;32071;49.036;9.344;2022-08-14T10:43:34;7.40;;;6.80;;
46363;SDS011;32071;49.036;9.344;2022-08-14T10:45:59;7.13;;;6.63;;
46363;SDS011;32071;49.036;9.344;2022-08-14T10:48:25;7.80;;;7.10;;
46363;SDS011;32071;49.036;9.344;2022-08-14T10:50:51;7.23;;;6.73;;
46363;SDS011;32071;49.036;9.344;2022-08-14T10:53:28;7.30;;;6.80;;
46363;SDS011;32071;49.036;9.344;2022-08-14T10:55:57;7.90;;;7.23;;
46363;SDS011;32071;49.036;9.344;2022-08-14T10:58:27;7.33;;;6.73;;
46363;SDS011;32071;49.036;9.344;2022-08-14T11:00:55;7.80;;;7.20;;
46363;SDS011;32071;49.036;9.344;2022-08-14T11:03:22;7.23;;;6.53;;
46363;SDS011;32071;49.036;9.344;2022-08-14T11:05:49;7.67;;;7.07;;
46363;SDS011;32071;49.036;9.344;2022-08-14T11:08:16;7.80;;;7.10;;
46363;SDS011;32071;49.036;9.344;2022-08-14T11:10:54;7.03;;;6.37;;
46363;SDS011;32071;49.036;9.344;2022-08-14T11:13:22;6.80;;;6.40;;
46363;SDS011;32071;49.036;9.344;2022-08-14T11:15:51;7.70;;;6.93;;
46363;SDS011;32071;49.036;9.344;2022-08-14T11:18:20;7.77;;;7.23;;
46363;SDS011;32071;49.036;9.344;2022-08-14T11:20:49;7.53;;;6.50;;
46363;SDS011;32071;49.036;9.344;2022-08-14T11:23:20;7.67;;;7.07;;
46363;SDS011;32071;49.036;9.344;2022-08-14T11:25:55;8.47;;;7.83;;
46363;SDS011;32071;49.036;9.344;2022-08-14T11:28:23;7.87;;;7.27;;
46363;SDS011;32071;49.036;9.344;2022-08-14T11:30:51;7.63;;;6.93;;
46363;SDS011;32071;49.036;9.344;2022-08-14T11:33:24;7.60;;;7.00;;
46363;SDS011;32071;49.036;9.344;2022-08-14T11:35:53;7.70;;;7.07;;
46363;SDS011;32071;49.036;9.344;2022-08-14T11:38:19;6.70;;;6.20;;
46363;SDS011;32071;49.036;9.344;2022-08-14T11:40:45;7.77;;;7.13;;
46363;SDS011;32071;49.036;9.344;2022-08-14T11:43:11;7.23;;;6.63;;
46363;SDS011;32071;49.036;9.344;2022-08-14T11:45:37;6.77;;;6.27;;
46363;SDS011;32071;49.036;9.344;2022-08-14T11:48:17;10.30;;;6.83;;
46363;SDS011;32071;49.036;9.344;2022-08-14T11:50:47;7.20;;;6.70;;
46363;SDS011;32071;49.036;9.344;2022-08-14T11:53:21;7.83;;;7.13;;
46363;SDS011;32071;49.036;9.344;2022-08-14T11:56:01;7.50;;;6.90;;
46363;SDS011;32071;49.036;9.344;2022-08-14T11:58:33;7.00;;;6.50;;
46363;SDS011;32071;49.036;9.344;2022-08-14T12:01:02;6.83;;;6.20;;
46363;SDS011;32071;49.036;9.344;2022-08-14T12:03:35;6.87;;;6.37;;
46363;SDS011;32071;49.036;9.344;2022-08-14T12:06:05;7.47;;;6.93;;
46363;SDS011;32071;49.036;9.344;2022-08-14T12:08:33;8.00;;;6.90;;
46363;SDS011;32071;49.036;9.344;2022-08-14T12:11:00;7.40;;;6.80;;
46363;SDS011;32071;49.036;9.344;2022-08-14T12:13:28;7.07;;;6.60;;
46363;SDS011;32071;49.036;9.344;2022-08-14T12:15:58;7.17;;;6.57;;
46363;SDS011;32071;49.036;9.344;2022-08-14T12:18:32;7.63;;;7.03;;
46363;SDS011;32071;49.036;9.344;2022-08-14T12:24:05;8.10;;;6.90;;
46363;SDS011;32071;49.036;9.344;2022-08-14T12:26:32;7.13;;;6.63;;
46363;SDS011;32071;49.036;9.344;2022-08-14T12:31:33;7.23;;;6.73;;
46363;SDS011;32071;49.036;9.344;2022-08-14T12:34:00;7.00;;;6.50;;
46363;SDS011;32071;49.036;9.344;2022-08-14T12:36:28;6.90;;;6.33;;
46363;SDS011;32071;49.036;9.344;2022-08-14T12:39:00;7.37;;;6.87;;
46363;SDS011;32071;49.036;9.344;2022-08-14T12:41:29;6.60;;;6.10;;
46363;SDS011;32071;49.036;9.344;2022-08-14T12:44:00;7.63;;;7.10;;
46363;SDS011;32071;49.036;9.344;2022-08-14T12:46:28;7.77;;;7.17;;
46363;SDS011;32071;49.036;9.344;2022-08-14T12:49:01;7.63;;;7.03;;
46363;SDS011;32071;49.036;9.344;2022-08-14T12:51:33;6.93;;;6.43;;
46363;SDS011;32071;49.036;9.344;2022-08-14T12:54:00;7.13;;;6.63;;
46363;SDS011;32071;49.036;9.344;2022-08-14T12:56:45;7.50;;;6.90;;
46363;SDS011;32071;49.036;9.344;2022-08-14T12:59:11;8.43;;;6.60;;
46363;SDS011;32071;49.036;9.344;2022-08-14T13:01:39;6.73;;;6.20;;
46363;SDS011;32071;49.036;9.344;2022-08-14T13:04:11;6.50;;;6.10;;
46363;SDS011;32071;49.036;9.344;2022-08-14T13:06:39;7.10;;;6.60;;
46363;SDS011;32071;49.036;9.344;2022-08-14T13:09:08;9.20;;;6.90;;
46363;SDS011;32071;49.036;9.344;2022-08-14T13:11:56;6.57;;;6.07;;
46363;SDS011;32071;49.036;9.344;2022-08-14T13:14:22;6.90;;;6.40;;
46363;SDS011;32071;49.036;9.344;2022-08-14T13:16:52;6.87;;;6.37;;
46363;SDS011;32071;49.036;9.344;2022-08-14T13:19:19;7.03;;;6.47;;
46363;SDS011;32071;49.036;9.344;2022-08-14T13:21:45;8.20;;;7.00;;
46363;SDS011;32071;49.036;9.344;2022-08-14T13:24:13;6.60;;;6.20;;
46363;SDS011;32071;49.036;9.344;2022-08-14T13:26:47;6.90;;;6.40;;
46363;SDS011;32071;49.036;9.344;2022-08-14T13:29:19;7.57;;;6.97;;
46363;SDS011;32071;49.036;9.344;2022-08-14T13:31:49;6.83;;;6.40;;
46363;SDS011;32071;49.036;9.344;2022-08-14T13:34:21;9.83;;;6.73;;
46363;SDS011;32071;49.036;9.344;2022-08-14T13:36:51;7.03;;;6.53;;
46363;SDS011;32071;49.036;9.344;2022-08-14T13:39:20;7.23;;;6.70;;
46363;SDS011;32071;49.036;9.344;2022-08-14T13:41:48;7.00;;;6.50;;
46363;SDS011;32071;49.036;9.344;2022-08-14T13:44:15;7.67;;;6.87;;
46363;SDS011;32071;49.036;9.344;2022-08-14T13:46:44;6.83;;;6.10;;
46363;SDS011;32071;49.036;9.344;2022-08-14T13:49:10;6.97;;;6.47;;
46363;SDS011;32071;49.036;9.344;2022-08-14T13:51:38;6.27;;;5.87;;
46363;SDS011;32071;49.036;9.344;2022-08-14T13:54:05;6.93;;;6.53;;
46363;SDS011;32071;49.036;9.344;2022-08-14T13:56:33;7.07;;;6.47;;
46363;SDS011;32071;49.036;9.344;2022-08-14T13:59:04;6.50;;;6.00;;
46363;SDS011;32071;49.036;9.344;2022-08-14T14:01:31;7.17;;;6.67;;
46363;SDS011;32071;49.036;9.344;2022-08-14T14:03:58;7.03;;;6.53;;
46363;SDS011;32071;49.036;9.344;2022-08-14T14:06:24;6.70;;;6.30;;
46363;SDS011;32071;49.036;9.344;2022-08-14T14:08:53;7.70;;;7.03;;
46363;SDS011;32071;49.036;9.344;2022-08-14T14:11:19;6.90;;;6.40;;
46363;SDS011;32071;49.036;9.344;2022-08-14T14:13:48;7.20;;;6.70;;
46363;SDS011;32071;49.036;9.344;2022-08-14T14:16:19;7.13;;;6.70;;
46363;SDS011;32071;49.036;9.344;2022-08-14T14:18:46;7.33;;;6.67;;
46363;SDS011;32071;49.036;9.344;2022-08-14T14:21:18;5.90;;;5.60;;
46363;SDS011;32071;49.036;9.344;2022-08-14T14:23:44;7.27;;;6.77;;
46363;SDS011;32071;49.036;9.344;2022-08-14T14:26:14;7.27;;;6.77;;
46363;SDS011;32071;49.036;9.344;2022-08-14T14:28:41;7.17;;;6.67;;
46363;SDS011;32071;49.036;9.344;2022-08-14T14:31:09;6.87;;;6.47;;
46363;SDS011;32071;49.036;9.344;2022-08-14T14:33:36;7.03;;;6.53;;
46363;SDS011;32071;49.036;9.344;2022-08-14T14:36:08;6.63;;;6.23;;
46363;SDS011;32071;49.036;9.344;2022-08-14T14:38:37;6.50;;;6.00;;
46363;SDS011;32071;49.036;9.344;2022-08-14T14:41:08;6.83;;;6.37;;
46363;SDS011;32071;49.036;9.344;2022-08-14T14:43:35;7.00;;;6.40;;
46363;SDS011;32071;49.036;9.344;2022-08-14T14:46:08;6.80;;;6.30;;
46363;SDS011;32071;49.036;9.344;2022-08-14T14:48:37;6.60;;;6.20;;
46363;SDS011;32071;49.036;9.344;2022-08-14T14:51:08;6.33;;;5.80;;
46363;SDS011;32071;49.036;9.344;2022-08-14T14:53:40;6.97;;;6.57;;
46363;SDS011;32071;49.036;9.344;2022-08-14T14:56:07;6.53;;;6.13;;
46363;SDS011;32071;49.036;9.344;2022-08-14T14:58:35;5.97;;;5.68;;
46363;SDS011;32071;49.036;9.344;2022-08-14T15:01:02;6.22;;;5.93;;
46363;SDS011;32071;49.036;9.344;2022-08-14T15:03:29;6.55;;;6.15;;
46363;SDS011;32071;49.036;9.344;2022-08-14T15:05:57;6.93;;;6.40;;
46363;SDS011;32071;49.036;9.344;2022-08-14T15:08:22;6.20;;;5.80;;
46363;SDS011;32071;49.036;9.344;2022-08-14T15:10:49;6.87;;;6.20;;
46363;SDS011;32071;49.036;9.344;2022-08-14T15:13:17;7.30;;;6.70;;
46363;SDS011;32071;49.036;9.344;2022-08-14T15:15:43;6.60;;;6.20;;
46363;SDS011;32071;49.036;9.344;2022-08-14T15:18:08;6.73;;;6.33;;
46363;SDS011;32071;49.036;9.344;2022-08-14T15:20:34;6.80;;;6.40;;